createdAt,value
2022-09-06T00:02:15.920Z,17.50
2022-09-06T00:05:19.225Z,17.53
2022-09-06T00:08:22.124Z,17.39
2022-09-06T00:11:25.147Z,17.27
2022-09-06T00:14:27.833Z,17.16
2022-09-06T00:17:32.604Z,17.32
2022-09-06T00:20:38.492Z,17.37
2022-09-06T00:23:42.464Z,17.38
2022-09-06T00:26:45.088Z,17.42
2022-09-06T00:29:48.217Z,17.19
2022-09-06T00:32:50.943Z,17.13
2022-09-06T00:35:59.765Z,17.14
2022-09-06T00:39:03.012Z,17.27
2022-09-06T00:42:13.987Z,17.20
2022-09-06T00:45:16.757Z,17.20
2022-09-06T00:48:20.536Z,17.13
2022-09-06T00:51:26.543Z,17.13
2022-09-06T00:54:31.356Z,17.08
2022-09-06T00:57:35.190Z,16.90
2022-09-06T01:00:38.336Z,16.83
2022-09-06T01:03:41.500Z,16.94
2022-09-06T01:06:53.133Z,16.88
2022-09-06T01:10:50.364Z,16.88
2022-09-06T01:14:15.419Z,17.00
2022-09-06T01:17:27.059Z,16.85
2022-09-06T01:20:33.069Z,16.81
2022-09-06T01:24:21.779Z,16.82
2022-09-06T01:27:58.946Z,16.68
2022-09-06T01:31:25.230Z,16.70
2022-09-06T01:34:35.502Z,16.71
2022-09-06T01:37:39.435Z,16.71
2022-09-06T01:40:42.464Z,16.69
2022-09-06T01:43:49.607Z,16.73
2022-09-06T01:47:05.668Z,16.72
2022-09-06T01:50:43.691Z,16.64
2022-09-06T01:54:12.476Z,16.45
2022-09-06T01:57:33.834Z,16.45
2022-09-06T02:01:03.909Z,16.47
2022-09-06T02:04:23.854Z,16.36
2022-09-06T02:07:32.332Z,16.36
2022-09-06T02:10:47.438Z,16.42
2022-09-06T02:13:59.968Z,16.43
2022-09-06T02:17:05.441Z,16.39
2022-09-06T02:20:20.823Z,16.44
2022-09-06T02:23:29.270Z,16.55
2022-09-06T02:26:36.206Z,16.53
2022-09-06T02:29:39.357Z,16.64
2022-09-06T02:32:56.587Z,16.47
2022-09-06T02:36:06.382Z,16.29
2022-09-06T02:39:09.643Z,16.32
2022-09-06T02:42:15.729Z,16.26
2022-09-06T02:45:18.359Z,16.29
2022-09-06T02:48:22.759Z,16.18
2022-09-06T02:51:27.880Z,16.23
2022-09-06T02:54:31.405Z,16.21
2022-09-06T02:57:35.801Z,16.13
2022-09-06T03:00:39.108Z,16.18
2022-09-06T03:03:42.580Z,16.32
2022-09-06T03:06:45.538Z,16.26
2022-09-06T03:09:48.223Z,16.23
2022-09-06T03:12:51.406Z,16.17
2022-09-06T03:15:57.717Z,16.08
2022-09-06T03:19:00.679Z,15.93
2022-09-06T03:22:03.391Z,15.88
2022-09-06T03:25:08.154Z,15.86
2022-09-06T03:28:11.258Z,15.87
2022-09-06T03:31:14.269Z,15.94
2022-09-06T03:34:16.977Z,15.84
2022-09-06T03:37:20.016Z,15.78
2022-09-06T03:40:22.917Z,15.73
2022-09-06T03:43:27.400Z,15.77
2022-09-06T03:46:31.044Z,15.72
2022-09-06T03:49:34.060Z,15.69
2022-09-06T03:52:36.735Z,15.83
2022-09-06T03:55:40.240Z,15.80
2022-09-06T03:58:42.828Z,15.72
2022-09-06T04:01:46.831Z,15.71
2022-09-06T04:04:49.888Z,15.68
2022-09-06T04:07:52.562Z,15.58
2022-09-06T04:10:57.096Z,15.37
2022-09-06T04:13:59.746Z,15.49
2022-09-06T04:17:03.030Z,15.59
2022-09-06T04:20:06.474Z,15.61
2022-09-06T04:23:09.801Z,15.62
2022-09-06T04:26:12.484Z,15.52
2022-09-06T04:29:15.471Z,15.53
2022-09-06T04:32:18.542Z,15.55
2022-09-06T04:35:21.500Z,15.49
2022-09-06T04:38:26.941Z,15.34
2022-09-06T04:41:29.980Z,15.27
2022-09-06T04:44:32.732Z,15.26
2022-09-06T04:47:36.102Z,15.27
2022-09-06T04:50:39.127Z,15.25
2022-09-06T04:53:42.195Z,15.28
2022-09-06T04:56:44.832Z,15.64
2022-09-06T04:59:47.902Z,16.22
2022-09-06T05:02:50.550Z,16.77
2022-09-06T05:05:53.533Z,17.04
2022-09-06T05:08:56.314Z,17.35
2022-09-06T05:12:00.051Z,17.79
2022-09-06T05:15:02.843Z,18.21
2022-09-06T05:18:06.839Z,18.48
2022-09-06T05:21:09.665Z,18.90
2022-09-06T05:24:13.008Z,19.24
2022-09-06T05:27:15.885Z,19.36
2022-09-06T05:30:19.892Z,19.65
2022-09-06T05:33:23.346Z,20.03
2022-09-06T05:36:27.765Z,20.36
2022-09-06T05:39:30.549Z,20.13
2022-09-06T05:42:36.137Z,19.69
2022-09-06T05:45:38.937Z,19.44
2022-09-06T05:48:41.908Z,19.17
2022-09-06T05:51:44.551Z,19.23
2022-09-06T05:54:47.547Z,19.26
2022-09-06T05:57:50.602Z,19.27
2022-09-06T06:00:54.142Z,19.24
2022-09-06T06:04:08.179Z,19.22
2022-09-06T06:07:10.882Z,19.25
2022-09-06T06:10:13.992Z,19.33
2022-09-06T06:13:16.681Z,19.44
2022-09-06T06:16:22.304Z,19.55
2022-09-06T06:19:26.806Z,19.61
2022-09-06T06:22:29.866Z,19.71
2022-09-06T06:25:32.507Z,19.77
2022-09-06T06:28:36.895Z,19.95
2022-09-06T06:31:40.954Z,20.11
2022-09-06T06:34:44.007Z,20.23
2022-09-06T06:37:46.694Z,20.38
2022-09-06T06:40:49.622Z,20.55
2022-09-06T06:43:57.667Z,20.74
2022-09-06T06:47:02.769Z,20.81
2022-09-06T06:50:05.969Z,20.91
2022-09-06T06:53:08.970Z,21.03
2022-09-06T06:56:20.257Z,21.18
2022-09-06T06:59:23.288Z,21.89
2022-09-06T07:02:26.067Z,22.41
2022-09-06T07:08:52.761Z,22.77
2022-09-06T07:11:55.812Z,23.30
2022-09-06T07:14:59.817Z,23.05
2022-09-06T07:18:02.856Z,23.85
2022-09-06T07:24:28.779Z,24.37
2022-09-06T07:27:47.297Z,24.61
2022-09-06T07:30:54.446Z,25.02
2022-09-06T07:33:57.065Z,25.27
2022-09-06T07:37:00.125Z,26.06
2022-09-06T07:40:04.486Z,26.83
2022-09-06T07:43:07.591Z,27.01
2022-09-06T07:46:13.516Z,27.01
2022-09-06T07:49:16.482Z,27.71
2022-09-06T07:55:42.129Z,27.74
2022-09-06T07:58:44.966Z,27.81
2022-09-06T08:01:48.543Z,28.19
2022-09-06T08:04:55.839Z,27.94
2022-09-06T08:11:24.158Z,28.45
2022-09-06T08:14:26.819Z,29.12
2022-09-06T08:17:35.351Z,29.35
2022-09-06T08:20:38.120Z,29.34
2022-09-06T08:23:45.417Z,29.35
2022-09-06T08:26:48.132Z,29.45
2022-09-06T08:29:51.217Z,29.90
2022-09-06T08:32:57.068Z,30.01
2022-09-06T08:36:00.708Z,28.69
2022-09-06T08:39:06.322Z,28.51
2022-09-06T08:42:11.576Z,28.48
2022-09-06T08:45:19.616Z,29.49
2022-09-06T08:48:26.824Z,29.65
2022-09-06T08:51:49.500Z,29.87
2022-09-06T08:55:12.674Z,29.61
2022-09-06T08:58:30.281Z,29.84
2022-09-06T09:01:44.189Z,30.29
2022-09-06T09:05:00.730Z,30.54
2022-09-06T09:08:16.397Z,30.14
2022-09-06T09:11:21.601Z,30.05
2022-09-06T09:14:36.313Z,29.65
2022-09-06T09:17:39.260Z,29.09
2022-09-06T09:20:42.180Z,28.93
2022-09-06T09:23:49.098Z,28.64
2022-09-06T09:27:02.785Z,27.84
2022-09-06T09:33:38.908Z,27.03
2022-09-06T09:40:05.074Z,26.90
2022-09-06T09:43:13.738Z,27.69
2022-09-06T09:46:23.538Z,28.78
2022-09-06T09:49:29.978Z,28.90
2022-09-06T09:52:32.972Z,29.65
2022-09-06T09:55:35.926Z,30.28
2022-09-06T09:58:40.045Z,30.68
2022-09-06T10:01:42.741Z,30.83
2022-09-06T10:04:50.004Z,31.29
2022-09-06T10:07:57.771Z,31.40
2022-09-06T10:11:01.172Z,31.35
2022-09-06T10:14:23.351Z,31.08
2022-09-06T10:17:34.353Z,30.23
2022-09-06T10:20:50.615Z,31.14
2022-09-06T10:27:26.542Z,31.37
2022-09-06T10:30:32.384Z,31.84
2022-09-06T10:34:05.009Z,32.03
2022-09-06T10:37:24.129Z,30.78
2022-09-06T10:40:32.764Z,29.99
2022-09-06T10:43:48.907Z,29.96
2022-09-06T10:47:04.923Z,30.50
2022-09-06T10:50:08.415Z,29.67
2022-09-06T10:53:32.900Z,30.52
2022-09-06T10:56:56.903Z,30.10
2022-09-06T11:00:14.999Z,30.29
2022-09-06T11:07:01.174Z,31.44
2022-09-06T11:10:24.714Z,31.82
2022-09-06T11:13:28.716Z,31.19
2022-09-06T11:16:39.780Z,30.18
2022-09-06T11:20:19.448Z,29.75
2022-09-06T11:23:48.488Z,29.56
2022-09-06T11:27:01.018Z,29.21
2022-09-06T11:30:06.984Z,29.27
2022-09-06T11:33:35.698Z,30.51
2022-09-06T11:37:00.453Z,31.34
2022-09-06T11:40:28.243Z,30.82
2022-09-06T11:43:49.518Z,31.05
2022-09-06T11:46:55.097Z,31.75
2022-09-06T11:49:58.175Z,31.61
2022-09-06T11:53:17.723Z,31.71
2022-09-06T11:56:31.868Z,31.65
2022-09-06T11:59:44.276Z,29.59
2022-09-06T12:02:47.421Z,29.11
2022-09-06T12:06:20.489Z,28.60
2022-09-06T12:09:48.131Z,28.22
2022-09-06T12:12:52.763Z,27.83
2022-09-06T12:15:56.699Z,27.60
2022-09-06T12:19:02.215Z,27.35
2022-09-06T12:22:27.851Z,27.16
2022-09-06T12:25:34.321Z,27.08
2022-09-06T12:28:42.901Z,26.94
2022-09-06T12:31:55.252Z,27.00
2022-09-06T12:38:31.105Z,26.58
2022-09-06T12:41:43.281Z,26.44
2022-09-06T12:44:52.677Z,26.30
2022-09-06T12:48:11.964Z,26.02
2022-09-06T12:51:25.937Z,25.16
2022-09-06T12:54:29.291Z,23.93
2022-09-06T12:57:32.238Z,22.88
2022-09-06T13:00:40.987Z,22.18
2022-09-06T13:03:57.582Z,21.78
2022-09-06T13:07:03.281Z,21.18
2022-09-06T13:10:07.058Z,21.06
2022-09-06T13:13:09.834Z,21.02
2022-09-06T13:16:24.215Z,21.53
2022-09-06T13:19:39.391Z,22.15
2022-09-06T13:22:47.396Z,22.89
2022-09-06T13:25:53.207Z,23.15
2022-09-06T13:28:56.162Z,23.09
2022-09-06T13:32:02.464Z,22.69
2022-09-06T13:35:05.692Z,22.29
2022-09-06T13:38:35.035Z,22.18
2022-09-06T13:41:41.922Z,22.19
2022-09-06T13:44:45.830Z,22.23
2022-09-06T13:47:49.134Z,22.18
2022-09-06T13:50:53.946Z,22.39
2022-09-06T13:54:13.560Z,23.00
2022-09-06T13:57:19.988Z,23.52
2022-09-06T14:00:26.636Z,24.19
2022-09-06T14:03:31.994Z,23.95
2022-09-06T14:06:37.113Z,24.25
2022-09-06T14:09:40.388Z,24.27
2022-09-06T14:12:45.590Z,24.05
2022-09-06T14:15:50.655Z,23.89
2022-09-06T14:18:53.433Z,23.86
2022-09-06T14:21:56.394Z,23.70
2022-09-06T14:24:59.907Z,23.48
2022-09-06T14:28:04.638Z,23.51
2022-09-06T14:31:13.050Z,23.44
2022-09-06T14:34:16.435Z,23.25
2022-09-06T14:37:19.202Z,22.66
2022-09-06T14:40:22.218Z,22.46
2022-09-06T14:43:24.992Z,22.30
2022-09-06T14:46:30.064Z,22.14
2022-09-06T14:49:32.932Z,22.02
2022-09-06T14:52:38.809Z,21.36
2022-09-06T14:55:42.944Z,20.25
2022-09-06T14:58:46.866Z,19.85
2022-09-06T15:01:49.515Z,19.58
2022-09-06T15:04:52.606Z,19.57
2022-09-06T15:07:59.354Z,19.48
2022-09-06T15:11:02.739Z,19.46
2022-09-06T15:14:17.929Z,19.55
2022-09-06T15:17:20.933Z,19.62
2022-09-06T15:20:23.534Z,19.60
2022-09-06T15:23:27.642Z,19.41
2022-09-06T15:26:30.981Z,19.41
2022-09-06T15:29:34.003Z,19.38
2022-09-06T15:32:36.711Z,19.37
2022-09-06T15:35:43.232Z,19.37
2022-09-06T15:38:48.294Z,19.45
2022-09-06T15:41:52.006Z,19.49
2022-09-06T15:44:55.527Z,19.52
2022-09-06T15:48:01.333Z,19.61
2022-09-06T15:51:05.765Z,19.74
2022-09-06T15:54:09.324Z,19.93
2022-09-06T15:57:13.695Z,20.04
2022-09-06T16:00:18.307Z,20.17
2022-09-06T16:03:21.310Z,20.26
2022-09-06T16:06:27.946Z,20.26
2022-09-06T16:09:33.007Z,20.16
2022-09-06T16:12:35.606Z,20.19
2022-09-06T16:15:38.582Z,20.18
2022-09-06T16:18:43.989Z,20.07
2022-09-06T16:21:46.938Z,20.06
2022-09-06T16:24:49.705Z,19.88
2022-09-06T16:27:54.183Z,19.93
2022-09-06T16:31:01.090Z,19.89
2022-09-06T16:34:06.069Z,19.86
2022-09-06T16:37:08.864Z,19.89
2022-09-06T16:40:12.227Z,19.79
2022-09-06T16:43:16.788Z,19.87
2022-09-06T16:46:24.437Z,19.88
2022-09-06T16:49:28.538Z,19.80
2022-09-06T16:52:31.582Z,19.86
2022-09-06T16:55:39.278Z,19.86
2022-09-06T16:58:44.035Z,19.85
2022-09-06T17:01:50.529Z,19.88
2022-09-06T17:04:54.438Z,19.79
2022-09-06T17:07:58.647Z,19.70
2022-09-06T17:11:09.623Z,19.62
2022-09-06T17:14:12.490Z,19.66
2022-09-06T17:17:18.068Z,19.57
2022-09-06T17:20:21.152Z,19.53
2022-09-06T17:23:25.468Z,19.48
2022-09-06T17:26:28.191Z,19.32
2022-09-06T17:29:34.020Z,19.16
2022-09-06T17:32:37.318Z,19.07
2022-09-06T17:35:40.707Z,19.07
2022-09-06T17:38:47.921Z,19.11
2022-09-06T17:41:58.439Z,19.22
2022-09-06T17:45:02.926Z,19.17
2022-09-06T17:48:06.205Z,19.22
2022-09-06T17:51:08.960Z,19.25
2022-09-06T17:54:14.173Z,19.25
2022-09-06T17:57:17.083Z,19.40
2022-09-06T18:00:20.693Z,19.36
2022-09-06T18:03:24.926Z,19.34
2022-09-06T18:06:30.856Z,19.35
2022-09-06T18:09:37.320Z,19.26
2022-09-06T18:12:40.393Z,19.31
2022-09-06T18:15:45.107Z,19.25
2022-09-06T18:18:53.273Z,19.28
2022-09-06T18:21:57.766Z,19.37
2022-09-06T18:25:00.409Z,19.39
2022-09-06T18:28:05.276Z,19.38
2022-09-06T18:31:15.688Z,19.26
2022-09-06T18:34:20.212Z,19.13
2022-09-06T18:37:23.333Z,19.25
2022-09-06T18:40:27.285Z,19.30
2022-09-06T18:43:42.972Z,19.24
2022-09-06T18:46:47.460Z,19.18
2022-09-06T18:49:50.429Z,19.07
2022-09-06T18:52:54.414Z,19.04
2022-09-06T18:55:57.336Z,19.09
2022-09-06T18:59:01.938Z,18.87
2022-09-06T19:02:05.071Z,18.88
2022-09-06T19:05:08.933Z,18.78
2022-09-06T19:08:12.048Z,18.74
2022-09-06T19:11:18.264Z,18.64
2022-09-06T19:14:21.191Z,18.79
2022-09-06T19:17:24.753Z,18.68
2022-09-06T19:20:27.900Z,18.72
2022-09-06T19:23:34.354Z,18.82
2022-09-06T19:26:40.289Z,18.79
2022-09-06T19:29:43.778Z,18.78
2022-09-06T19:32:47.581Z,18.84
2022-09-06T19:36:10.431Z,18.80
2022-09-06T19:39:16.797Z,18.55
2022-09-06T19:42:20.260Z,18.68
2022-09-06T19:45:23.530Z,18.71
2022-09-06T19:48:29.000Z,18.76
2022-09-06T19:51:33.566Z,18.70
2022-09-06T19:54:40.036Z,18.67
2022-09-06T19:57:43.250Z,18.55
2022-09-06T20:00:46.835Z,18.57
2022-09-06T20:03:53.371Z,18.69
2022-09-06T20:06:56.465Z,18.66
2022-09-06T20:10:01.859Z,18.68
2022-09-06T20:13:06.017Z,18.68
2022-09-06T20:16:10.634Z,18.71
2022-09-06T20:19:15.488Z,18.70
2022-09-06T20:22:19.220Z,18.63
2022-09-06T20:25:22.136Z,18.42
2022-09-06T20:28:25.392Z,18.47
2022-09-06T20:31:30.253Z,18.11
2022-09-06T20:34:34.813Z,18.20
2022-09-06T20:37:39.346Z,18.16
2022-09-06T20:40:42.894Z,18.25
2022-09-06T20:43:52.864Z,18.39
2022-09-06T20:46:56.286Z,18.25
2022-09-06T20:50:00.189Z,18.26
2022-09-06T20:53:03.156Z,18.33
2022-09-06T20:56:08.135Z,18.15
2022-09-06T20:59:14.401Z,18.04
2022-09-06T21:02:17.426Z,18.00
2022-09-06T21:05:21.798Z,18.02
2022-09-06T21:08:24.468Z,17.96
2022-09-06T21:11:27.688Z,17.97
2022-09-06T21:14:30.809Z,17.92
2022-09-06T21:17:33.863Z,17.99
2022-09-06T21:20:36.944Z,17.78
2022-09-06T21:23:40.008Z,17.58
2022-09-06T21:26:43.512Z,17.56
2022-09-06T21:29:46.405Z,17.66
2022-09-06T21:32:49.282Z,17.76
2022-09-06T21:35:53.414Z,17.72
2022-09-06T21:38:59.227Z,17.66
2022-09-06T21:42:02.222Z,17.70
2022-09-06T21:45:05.194Z,17.69
2022-09-06T21:48:08.177Z,17.69
2022-09-06T21:51:14.464Z,17.73
2022-09-06T21:54:18.522Z,17.66
2022-09-06T21:57:21.151Z,17.56
2022-09-06T22:00:25.497Z,17.52
2022-09-06T22:03:30.720Z,17.46
2022-09-06T22:06:34.943Z,17.41
2022-09-06T22:09:37.875Z,17.29
2022-09-06T22:12:42.695Z,17.30
2022-09-06T22:15:46.069Z,17.38
2022-09-06T22:18:49.634Z,17.37
2022-09-06T22:21:54.543Z,17.47
2022-09-06T22:24:57.515Z,17.29
2022-09-06T22:28:00.784Z,17.23
2022-09-06T22:31:04.219Z,17.08
2022-09-06T22:34:07.717Z,16.94
2022-09-06T22:37:10.384Z,17.04
2022-09-06T22:40:15.585Z,16.92
2022-09-06T22:43:18.299Z,17.04
2022-09-06T22:46:25.363Z,17.09
2022-09-06T22:49:28.081Z,17.04
2022-09-06T22:52:31.068Z,17.03
2022-09-06T22:55:33.992Z,16.96
2022-09-06T22:58:36.897Z,16.86
2022-09-06T23:01:39.522Z,16.96
2022-09-06T23:04:42.621Z,17.03
2022-09-06T23:07:45.343Z,16.92
2022-09-06T23:10:48.538Z,17.06
2022-09-06T23:13:55.882Z,17.00
2022-09-06T23:16:58.881Z,16.93
2022-09-06T23:20:01.704Z,17.06
2022-09-06T23:23:05.408Z,16.87
2022-09-06T23:26:10.345Z,16.85
2022-09-06T23:29:13.558Z,16.81
2022-09-06T23:32:16.194Z,16.84
2022-09-06T23:35:19.174Z,16.91
2022-09-06T23:38:22.966Z,16.82
2022-09-06T23:41:26.774Z,16.80
2022-09-06T23:44:29.570Z,16.98
2022-09-06T23:47:32.608Z,16.85
2022-09-06T23:50:35.336Z,16.67
2022-09-06T23:53:39.977Z,16.68
2022-09-06T23:56:43.739Z,16.61
2022-09-06T23:59:46.960Z,16.63
